Time;durP1;ratioP1;P1;durP2;ratioP2;P2;SDS_P1;SDS_P2;PMS_P1;PMS_P2;Temp;Humidity;BMP_temperature;BMP_pressure;BME280_temperature;BME280_humidity;BME280_pressure;Samples;Min_cycle;Max_cycle;Signal;HPM_P1;HPM_P2
2023/10/06 00:03:20;;;;;;;14.40;10.20;;;;;;;11.75;95.11;98663.41;106514;1264;22558;-76
2023/10/06 00:05:49;;;;;;;14.60;10.50;;;;;;;11.73;94.88;98662.62;106525;1266;25034;-77
2023/10/06 00:08:17;;;;;;;15.40;10.40;;;;;;;11.73;95.03;98663.83;106798;1263;22582;-76
2023/10/06 00:10:54;;;;;;;14.90;10.30;;;;;;;11.74;94.69;98662.89;106491;1278;22538;-76
2023/10/06 00:13:31;;;;;;;12.40;9.50;;;;;;;11.75;95.32;98661.73;106817;1278;25227;-77
2023/10/06 00:16:00;;;;;;;14.10;10.90;;;;;;;11.75;95.47;98664.39;106549;1263;22569;-77
2023/10/06 00:18:29;;;;;;;14.10;10.40;;;;;;;11.71;95.25;98662.16;106537;1278;25227;-78
2023/10/06 00:20:57;;;;;;;13.20;10.60;;;;;;;11.68;94.98;98664.67;106903;1278;22568;-77
2023/10/06 00:23:30;;;;;;;12.30;9.60;;;;;;;11.68;95.36;98666.90;106966;1278;23385;-77
2023/10/06 00:25:59;;;;;;;14.90;10.00;;;;;;;11.69;95.40;98671.96;106984;1264;25389;-78
2023/10/06 00:28:28;;;;;;;14.20;9.40;;;;;;;11.70;95.19;98671.30;107012;1278;22526;-77
2023/10/06 00:31:06;;;;;;;14.30;10.30;;;;;;;11.70;95.93;98676.27;107110;1278;24365;-77
2023/10/06 00:33:37;;;;;;;13.20;9.90;;;;;;;11.67;96.25;98679.05;107133;1278;24094;-78
2023/10/06 00:36:14;;;;;;;13.90;9.50;;;;;;;11.65;96.09;98680.54;107061;1278;25369;-76
2023/10/06 00:38:50;;;;;;;14.90;10.50;;;;;;;11.63;96.48;98684.92;106906;1278;22553;-78
2023/10/06 00:41:23;;;;;;;15.10;11.30;;;;;;;11.63;95.81;98686.54;107074;1278;22744;-77
2023/10/06 00:43:51;;;;;;;16.30;11.50;;;;;;;11.60;96.27;98685.66;106913;1278;25233;-77
2023/10/06 00:46:19;;;;;;;13.40;10.40;;;;;;;11.57;95.97;98688.48;106538;1275;22605;-78
2023/10/06 00:48:56;;;;;;;14.00;10.50;;;;;;;11.56;96.23;98687.16;106855;1276;22535;-77
2023/10/06 00:51:26;;;;;;;15.00;9.70;;;;;;;11.52;95.91;98686.00;106857;1278;22620;-77
2023/10/06 00:53:56;;;;;;;16.60;10.00;;;;;;;11.51;95.73;98688.98;106827;1264;163640;-76
2023/10/06 00:56:28;;;;;;;14.30;10.80;;;;;;;11.47;95.87;98690.91;106892;1272;22590;-76
2023/10/06 00:58:57;;;;;;;14.40;11.00;;;;;;;11.40;97.30;98694.38;106683;1273;25448;-78
2023/10/06 01:01:26;;;;;;;16.20;10.40;;;;;;;11.36;96.65;98692.48;106780;1278;22640;-77
2023/10/06 01:04:15;;;;;;;17.20;9.80;;;;;;;11.34;97.34;98697.14;106869;1279;25340;-77
2023/10/06 01:06:43;;;;;;;13.90;10.90;;;;;;;11.32;97.61;98698.14;106808;1275;25407;-77
2023/10/06 01:11:48;;;;;;;14.20;10.00;;;;;;;11.27;97.55;98703.14;106852;1278;24096;-79
2023/10/06 01:14:21;;;;;;;11.70;9.20;;;;;;;11.28;98.00;98701.02;107174;1278;25398;-76
2023/10/06 01:16:51;;;;;;;14.80;9.90;;;;;;;11.29;97.94;98701.66;106560;1278;22599;-76
2023/10/06 01:19:33;;;;;;;15.30;10.30;;;;;;;11.30;98.25;98704.36;106560;1278;22660;-77
2023/10/06 01:24:49;;;;;;;13.80;9.90;;;;;;;11.28;98.84;98709.29;107068;1267;24221;-77
2023/10/06 01:27:17;;;;;;;14.30;8.60;;;;;;;11.26;99.39;98712.33;107040;1278;22529;-77
2023/10/06 01:29:52;;;;;;;16.60;9.50;;;;;;;11.23;99.13;98713.64;107004;1262;22563;-77
2023/10/06 01:32:20;;;;;;;14.60;9.30;;;;;;;11.21;99.06;98714.09;106983;1262;22531;-77
2023/10/06 01:34:50;;;;;;;11.40;9.00;;;;;;;11.18;98.91;98719.19;106818;1278;22538;-77
2023/10/06 01:37:18;;;;;;;16.00;9.30;;;;;;;11.13;99.33;98716.79;106544;1278;22576;-76
2023/10/06 01:39:48;;;;;;;14.50;8.90;;;;;;;11.07;99.25;98718.13;106918;1278;22321;-76
2023/10/06 01:42:24;;;;;;;11.30;8.20;;;;;;;11.03;99.53;98719.36;106540;1263;24015;-77
2023/10/06 01:44:52;;;;;;;15.70;8.70;;;;;;;10.98;99.66;98721.81;106927;1278;24473;-78
2023/10/06 01:47:21;;;;;;;14.00;9.30;;;;;;;10.92;99.75;98721.42;106878;1262;22535;-77
2023/10/06 01:49:49;;;;;;;15.80;10.50;;;;;;;10.87;99.85;98723.67;106899;1278;22612;-78
2023/10/06 01:52:19;;;;;;;12.40;8.30;;;;;;;10.79;100.00;98727.23;106844;1278;22970;-78
2023/10/06 01:54:47;;;;;;;13.70;9.10;;;;;;;10.74;100.00;98730.98;106794;1278;22531;-77
2023/10/06 01:57:15;;;;;;;12.40;7.90;;;;;;;10.70;100.00;98736.40;106816;1278;25227;-78
2023/10/06 01:59:44;;;;;;;12.70;8.40;;;;;;;10.66;100.00;98740.36;106818;1264;22545;-78
2023/10/06 02:02:13;;;;;;;13.10;9.60;;;;;;;10.61;99.96;98743.14;106845;1278;22534;-78
2023/10/06 02:04:45;;;;;;;14.60;9.00;;;;;;;10.57;100.00;98741.38;106814;1275;23134;-79
2023/10/06 02:07:14;;;;;;;10.90;7.70;;;;;;;10.54;100.00;98741.60;106940;1278;25223;-77
2023/10/06 02:09:42;;;;;;;13.70;7.50;;;;;;;10.51;100.00;98736.98;106837;1278;23912;-77
2023/10/06 02:12:12;;;;;;;13.80;8.70;;;;;;;10.49;100.00;98739.59;106854;1278;25227;-78
2023/10/06 02:14:41;;;;;;;12.60;9.10;;;;;;;10.47;100.00;98740.52;106823;1263;23340;-78
2023/10/06 02:17:11;;;;;;;16.20;8.50;;;;;;;10.43;100.00;98741.94;106867;1278;22527;-78
2023/10/06 02:19:42;;;;;;;13.80;8.30;;;;;;;10.39;100.00;98745.79;106806;1278;25408;-78
2023/10/06 02:22:10;;;;;;;16.70;9.10;;;;;;;10.35;100.00;98745.91;107004;1264;22757;-78
2023/10/06 02:24:39;;;;;;;11.60;8.00;;;;;;;10.35;100.00;98744.02;106954;1256;25327;-76
2023/10/06 02:27:09;;;;;;;12.00;8.60;;;;;;;10.32;100.00;98743.39;106504;1263;22569;-78
2023/10/06 02:29:37;;;;;;;12.30;7.80;;;;;;;10.30;100.00;98741.13;106831;1278;23884;-77
2023/10/06 02:32:08;;;;;;;14.20;8.80;;;;;;;10.25;100.00;98741.13;106887;1278;22542;-78
2023/10/06 02:34:38;;;;;;;12.70;8.10;;;;;;;10.22;100.00;98741.40;106858;1263;23139;-77
2023/10/06 02:37:08;;;;;;;14.00;9.10;;;;;;;10.21;100.00;98741.99;106911;1278;22545;-78
2023/10/06 02:39:43;;;;;;;12.40;9.60;;;;;;;10.20;100.00;98747.06;106891;1278;22558;-77
2023/10/06 02:42:13;;;;;;;13.00;9.30;;;;;;;10.17;100.00;98745.30;106637;1278;22539;-78
2023/10/06 02:44:42;;;;;;;14.50;9.70;;;;;;;10.15;100.00;98745.58;106965;1278;22541;-78
2023/10/06 02:47:10;;;;;;;13.90;9.10;;;;;;;10.09;100.00;98744.20;107108;1263;22578;-79
2023/10/06 02:49:48;;;;;;;16.80;9.20;;;;;;;10.06;100.00;98746.63;106711;1278;24149;-76
2023/10/06 02:52:20;;;;;;;13.20;10.40;;;;;;;10.02;100.00;98750.84;107001;1275;26599;-77
2023/10/06 02:55:31;;;;;;;14.90;9.90;;;;;;;9.96;100.00;98753.77;106977;1278;22527;-78
2023/10/06 02:57:47;;;;;;;14.20;10.00;;;;;;;9.94;100.00;98755.98;106909;1276;24243;-78
2023/10/06 03:03:03;;;;;;;13.10;9.90;;;;;;;9.83;100.00;98765.48;107027;1266;25347;-78
2023/10/06 03:05:39;;;;;;;11.70;9.00;;;;;;;9.78;100.00;98766.85;106853;1278;22641;-78
2023/10/06 03:08:10;;;;;;;16.50;9.80;;;;;;;9.75;100.00;98772.49;107108;1278;24332;-78
2023/10/06 03:10:43;;;;;;;15.40;10.10;;;;;;;9.73;100.00;98771.80;106984;1278;24263;-78
2023/10/06 03:13:15;;;;;;;14.80;10.10;;;;;;;9.70;100.00;98775.08;107076;1278;22525;-78
2023/10/06 03:15:46;;;;;;;12.90;10.00;;;;;;;9.67;100.00;98766.74;107168;1278;22609;-78
2023/10/06 03:18:16;;;;;;;13.10;9.90;;;;;;;9.63;100.00;98766.91;106937;1278;24240;-78
2023/10/06 03:20:49;;;;;;;17.10;10.60;;;;;;;9.59;100.00;98766.91;106936;1278;22639;-78
2023/10/06 03:25:54;;;;;;;14.30;10.00;;;;;;;9.53;100.00;98774.14;106890;1278;26491;-78
2023/10/06 03:29:11;;;;;;;15.70;10.70;;;;;;;9.52;100.00;98775.20;106916;1278;22534;-77
2023/10/06 03:33:55;;;;;;;14.80;11.00;;;;;;;9.44;100.00;98775.73;107228;1278;26530;-77
2023/10/06 03:36:38;;;;;;;12.20;10.50;;;;;;;9.42;100.00;98768.60;106953;1278;24257;-76
2023/10/06 03:39:11;;;;;;;13.70;10.00;;;;;;;9.41;100.00;98770.00;106566;1278;23917;-78
2023/10/06 03:41:46;;;;;;;14.80;10.10;;;;;;;9.40;100.00;98764.08;106916;1278;22523;-77
2023/10/06 03:44:18;;;;;;;13.60;10.70;;;;;;;9.38;100.00;98774.52;107114;1278;24221;-78
2023/10/06 03:46:48;;;;;;;18.00;11.70;;;;;;;9.35;100.00;98767.14;107097;1278;24411;-79
2023/10/06 03:49:18;;;;;;;17.30;15.30;;;;;;;9.37;100.00;98772.67;107033;1278;22550;-78
2023/10/06 03:51:47;;;;;;;17.80;15.90;;;;;;;9.37;100.00;98773.27;107094;1278;22537;-77
2023/10/06 03:54:15;;;;;;;28.40;25.90;;;;;;;9.35;100.00;98771.98;106899;1256;24269;-77
2023/10/06 03:56:49;;;;;;;21.60;19.70;;;;;;;9.34;100.00;98774.45;106960;1270;24210;-77
2023/10/06 03:59:17;;;;;;;34.20;31.10;;;;;;;9.34;100.00;98775.91;106615;1278;22582;-78
2023/10/06 04:01:45;;;;;;;44.00;37.00;;;;;;;9.29;100.00;98777.90;106866;1278;22629;-77
2023/10/06 04:04:15;;;;;;;25.60;23.30;;;;;;;9.20;100.00;98778.64;106882;1272;23146;-77
2023/10/06 04:06:44;;;;;;;16.20;14.30;;;;;;;9.15;100.00;98778.52;107110;1262;25527;-77
2023/10/06 04:09:19;;;;;;;13.30;11.90;;;;;;;9.13;100.00;98778.96;107081;1278;22523;-77
2023/10/06 04:11:47;;;;;;;12.90;10.50;;;;;;;9.13;100.00;98774.55;106762;1267;22540;-79
2023/10/06 04:14:15;;;;;;;13.80;11.60;;;;;;;9.09;100.00;98778.09;107016;1278;23931;-78
2023/10/06 04:16:45;;;;;;;12.70;11.50;;;;;;;9.01;100.00;98782.34;107114;1278;22532;-78
2023/10/06 04:19:15;;;;;;;25.60;23.30;;;;;;;8.94;100.00;98786.02;107077;1278;22550;-77
2023/10/06 04:21:43;;;;;;;30.00;27.20;;;;;;;8.85;100.00;98787.69;106915;1278;25872;-76
2023/10/06 04:24:12;;;;;;;20.30;18.30;;;;;;;8.78;100.00;98793.63;106933;1278;22569;-78
2023/10/06 04:26:40;;;;;;;15.70;14.10;;;;;;;8.74;100.00;98796.46;107000;1278;22999;-79
2023/10/06 04:29:08;;;;;;;13.80;12.20;;;;;;;8.75;100.00;98794.33;107087;1278;25275;-78
2023/10/06 04:31:37;;;;;;;14.10;11.70;;;;;;;8.75;100.00;98790.24;107074;1264;22569;-78
2023/10/06 04:34:05;;;;;;;13.80;12.20;;;;;;;8.74;100.00;98790.81;107147;1264;23202;-79
2023/10/06 04:36:33;;;;;;;16.90;15.10;;;;;;;8.69;100.00;98792.20;106897;1278;22538;-78
2023/10/06 04:39:01;;;;;;;14.10;11.50;;;;;;;8.66;100.00;98796.54;106870;1278;23265;-79
2023/10/06 04:41:30;;;;;;;14.80;13.10;;;;;;;8.59;100.00;98801.10;106818;1267;24253;-79
2023/10/06 04:44:02;;;;;;;16.10;14.50;;;;;;;8.50;100.00;98806.86;106807;1267;22478;-79
2023/10/06 04:46:30;;;;;;;14.30;12.80;;;;;;;8.41;100.00;98809.51;106846;1278;22554;-79
2023/10/06 04:48:58;;;;;;;18.10;14.60;;;;;;;8.34;100.00;98809.98;106882;1275;25489;-78
2023/10/06 04:51:29;;;;;;;14.20;12.70;;;;;;;8.26;100.00;98808.77;107226;1278;25303;-78
2023/10/06 04:53:57;;;;;;;19.50;15.30;;;;;;;8.25;100.00;98807.52;107147;1275;22683;-77
2023/10/06 04:56:32;;;;;;;17.10;15.40;;;;;;;8.24;100.00;98806.88;106860;1272;25481;-77
2023/10/06 04:59:00;;;;;;;16.20;13.30;;;;;;;8.24;100.00;98810.15;106691;1278;22546;-78
2023/10/06 05:01:31;;;;;;;14.20;12.80;;;;;;;8.21;100.00;98810.50;106982;1278;22573;-78
2023/10/06 05:03:59;;;;;;;13.80;11.30;;;;;;;8.19;100.00;98813.13;106938;1272;22588;-78
2023/10/06 05:06:27;;;;;;;13.30;11.90;;;;;;;8.05;100.00;98821.37;106898;1278;22572;-78
2023/10/06 05:08:55;;;;;;;14.00;11.90;;;;;;;7.87;100.00;98820.08;106886;1278;22556;-78
2023/10/06 05:11:23;;;;;;;14.30;12.60;;;;;;;7.82;100.00;98818.82;106819;1266;24253;-77
2023/10/06 05:13:55;;;;;;;13.10;11.70;;;;;;;7.80;100.00;98817.14;107024;1278;23365;-79
2023/10/06 05:16:27;;;;;;;13.00;11.50;;;;;;;7.87;100.00;98825.49;107078;1265;24413;-78
2023/10/06 05:18:55;;;;;;;16.80;12.30;;;;;;;7.91;100.00;98828.33;106961;1275;23874;-78
2023/10/06 05:21:23;;;;;;;17.30;13.90;;;;;;;7.95;100.00;98831.09;106895;1265;22554;-78
2023/10/06 05:23:53;;;;;;;18.70;13.80;;;;;;;7.98;100.00;98824.12;106858;1269;22784;-78
2023/10/06 05:26:21;;;;;;;12.60;10.60;;;;;;;8.04;100.00;98828.77;106920;1272;22530;-79
2023/10/06 05:28:50;;;;;;;14.90;10.50;;;;;;;8.05;100.00;98831.18;107031;1266;22575;-79
2023/10/06 05:31:18;;;;;;;14.00;10.40;;;;;;;8.08;100.00;98833.69;107069;1262;26013;-78
2023/10/06 05:33:46;;;;;;;13.80;11.30;;;;;;;8.15;100.00;98837.59;106903;1278;22802;-79
2023/10/06 05:36:14;;;;;;;16.40;11.30;;;;;;;8.22;100.00;98827.70;107066;1270;22537;-81
2023/10/06 05:55:00;;;;;;;12.70;11.20;;;;;;;8.90;100.00;98863.80;104864;1296;558378;-76
2023/10/06 05:57:29;;;;;;;15.90;11.00;;;;;;;9.03;100.00;98868.36;106017;1279;146287;-76
2023/10/06 05:59:57;;;;;;;13.20;11.80;;;;;;;9.03;100.00;98872.39;106179;1279;22541;-76
2023/10/06 06:02:25;;;;;;;13.70;11.40;;;;;;;9.02;100.00;98874.21;106189;1276;22596;-77
2023/10/06 06:04:57;;;;;;;15.80;11.80;;;;;;;9.00;100.00;98877.65;107478;1266;25629;-76
2023/10/06 06:07:27;;;;;;;15.70;13.20;;;;;;;9.04;100.00;98885.95;107391;1266;22511;-76
2023/10/06 06:09:54;;;;;;;19.70;14.00;;;;;;;9.09;100.00;98892.58;107357;1275;22527;-76
2023/10/06 06:12:22;;;;;;;25.00;17.60;;;;;;;9.12;100.00;98888.71;107288;1275;22531;-76
2023/10/06 06:14:50;;;;;;;95.00;42.30;;;;;;;9.19;100.00;98891.52;106990;1275;22735;-77
2023/10/06 06:17:20;;;;;;;158.70;52.30;;;;;;;9.21;100.00;98891.11;107028;1271;22647;-77
2023/10/06 06:19:48;;;;;;;47.00;26.50;;;;;;;9.22;100.00;98890.89;107399;1272;22541;-77
2023/10/06 06:22:16;;;;;;;118.40;42.30;;;;;;;9.24;100.00;98892.89;107341;1270;22607;-77
2023/10/06 06:24:47;;;;;;;48.50;27.20;;;;;;;9.28;100.00;98900.48;107198;1275;22473;-76
2023/10/06 06:27:15;;;;;;;25.40;17.10;;;;;;;9.33;100.00;98911.20;107420;1263;22784;-76
2023/10/06 06:29:46;;;;;;;17.70;14.90;;;;;;;9.37;100.00;98923.09;107409;1275;22562;-75
2023/10/06 06:32:14;;;;;;;17.90;14.10;;;;;;;9.44;100.00;98918.00;107044;1256;22576;-76
2023/10/06 06:34:42;;;;;;;18.50;15.40;;;;;;;9.50;100.00;98924.80;107130;1272;24241;-75
2023/10/06 06:37:10;;;;;;;18.90;17.10;;;;;;;9.52;100.00;98927.96;106997;1272;22535;-76
2023/10/06 06:39:38;;;;;;;18.50;16.50;;;;;;;9.56;100.00;98933.26;107116;1275;23005;-76
2023/10/06 06:42:05;;;;;;;19.90;18.00;;;;;;;9.64;100.00;98936.02;107165;1268;22522;-76
2023/10/06 06:44:36;;;;;;;21.60;18.40;;;;;;;9.73;100.00;98936.98;107058;1275;22565;-76
2023/10/06 06:47:05;;;;;;;30.90;20.90;;;;;;;9.83;100.00;98940.28;107428;1275;23336;-77
2023/10/06 06:49:34;;;;;;;24.60;20.30;;;;;;;9.89;100.00;98938.67;107316;1273;22772;-76
2023/10/06 06:52:03;;;;;;;28.40;21.20;;;;;;;9.95;100.00;98937.81;106995;1274;22557;-76
2023/10/06 06:54:36;;;;;;;23.90;21.50;;;;;;;10.02;100.00;98937.06;107361;1263;22539;-77
2023/10/06 06:57:04;;;;;;;22.50;20.20;;;;;;;10.11;100.00;98936.09;106881;1275;22776;-78
2023/10/06 06:59:32;;;;;;;22.20;20.00;;;;;;;10.18;100.00;98940.08;107393;1275;24307;-79
2023/10/06 07:02:00;;;;;;;24.70;22.10;;;;;;;10.23;100.00;98945.89;107360;1276;22528;-78
2023/10/06 07:04:33;;;;;;;25.00;22.60;;;;;;;10.29;100.00;98948.13;107365;1263;25405;-78
2023/10/06 07:07:01;;;;;;;25.60;22.70;;;;;;;10.35;100.00;98947.58;106909;1267;22986;-76
2023/10/06 07:09:29;;;;;;;28.30;25.50;;;;;;;10.41;100.00;98949.66;106984;1261;24249;-76
2023/10/06 07:11:57;;;;;;;25.70;23.10;;;;;;;10.52;100.00;98945.34;107001;1261;22927;-76
2023/10/06 07:14:27;;;;;;;26.30;23.70;;;;;;;10.55;100.00;98948.35;107586;1261;22579;-77
2023/10/06 07:16:56;;;;;;;31.60;28.30;;;;;;;10.57;100.00;98953.63;107515;1267;24210;-77
2023/10/06 07:19:24;;;;;;;28.40;25.70;;;;;;;10.61;100.00;98951.80;106971;1267;22556;-76
2023/10/06 07:21:53;;;;;;;24.00;21.40;;;;;;;10.65;100.00;98952.76;107381;1264;24261;-77
2023/10/06 07:24:20;;;;;;;28.50;25.40;;;;;;;10.66;100.00;98955.72;107476;1270;24200;-76
2023/10/06 07:26:50;;;;;;;25.00;19.20;;;;;;;10.75;100.00;98956.23;107677;1275;22544;-76
2023/10/06 07:29:18;;;;;;;21.50;19.40;;;;;;;10.82;100.00;98950.61;107736;1266;22967;-76
2023/10/06 07:31:48;;;;;;;23.60;20.20;;;;;;;10.83;100.00;98950.28;107623;1275;25252;-77
2023/10/06 07:34:18;;;;;;;25.90;22.20;;;;;;;10.89;100.00;98949.66;108047;1261;25449;-77
2023/10/06 07:36:46;;;;;;;21.40;15.60;;;;;;;11.01;100.00;98948.34;107668;1275;25351;-76
2023/10/06 07:39:20;;;;;;;15.80;14.20;;;;;;;11.13;100.00;98946.88;107117;1270;22642;-77
2023/10/06 07:41:49;;;;;;;15.00;13.20;;;;;;;11.29;100.00;98944.00;107916;1275;24173;-77
2023/10/06 07:44:18;;;;;;;15.60;13.60;;;;;;;11.45;100.00;98940.46;107897;1275;22626;-77
2023/10/06 07:46:47;;;;;;;20.10;16.60;;;;;;;11.55;100.00;98941.38;107918;1275;22536;-77
2023/10/06 07:49:16;;;;;;;15.10;13.30;;;;;;;11.59;100.00;98934.05;108185;1275;23360;-77
2023/10/06 07:51:45;;;;;;;18.40;13.10;;;;;;;11.56;100.00;98934.84;107637;1275;25223;-77
2023/10/06 07:54:13;;;;;;;16.30;14.00;;;;;;;11.61;100.00;98938.48;108238;1275;22524;-77
2023/10/06 07:56:42;;;;;;;15.90;14.20;;;;;;;11.57;100.00;98939.15;108227;1275;22560;-77
2023/10/06 07:59:10;;;;;;;15.40;14.00;;;;;;;11.51;100.00;98941.67;109361;1275;22659;-77
2023/10/06 08:01:38;;;;;;;18.90;16.90;;;;;;;11.48;100.00;98943.04;108620;1275;23067;-76
2023/10/06 08:04:33;;;;;;;19.00;17.10;;;;;;;11.51;100.00;98947.27;108123;1273;22523;-77
2023/10/06 08:07:02;;;;;;;14.30;12.50;;;;;;;11.53;100.00;98947.45;108017;1275;22579;-77
2023/10/06 08:09:32;;;;;;;14.80;13.30;;;;;;;11.47;100.00;98950.92;108016;1275;23400;-77
2023/10/06 08:12:08;;;;;;;15.60;14.10;;;;;;;11.39;100.00;98946.97;107718;1275;22528;-78
2023/10/06 08:14:37;;;;;;;14.40;12.90;;;;;;;11.30;100.00;98945.19;107758;1259;23501;-76
2023/10/06 08:17:05;;;;;;;17.40;13.20;;;;;;;11.26;100.00;98942.34;107490;1267;22531;-75
2023/10/06 08:19:34;;;;;;;15.90;13.50;;;;;;;11.37;100.00;98932.84;107715;1272;22630;-76
2023/10/06 08:22:02;;;;;;;16.90;14.80;;;;;;;11.46;100.00;98941.70;108610;1275;22207;-85
2023/10/06 08:24:31;;;;;;;17.00;14.90;;;;;;;11.46;100.00;98942.56;109406;1267;22656;-81
2023/10/06 08:27:03;;;;;;;18.00;13.80;;;;;;;11.45;100.00;98946.30;107730;1261;22772;-84
2023/10/06 08:29:33;;;;;;;15.90;12.30;;;;;;;11.49;100.00;98948.27;107652;1275;22527;-81
2023/10/06 08:32:02;;;;;;;14.10;11.50;;;;;;;11.57;100.00;98946.59;107516;1275;22596;-82
2023/10/06 08:34:30;;;;;;;16.70;11.60;;;;;;;11.61;100.00;98939.98;107676;1260;25417;-84
2023/10/06 08:37:00;;;;;;;14.00;12.50;;;;;;;11.63;100.00;98936.84;107430;1276;24780;-83
2023/10/06 08:39:38;;;;;;;13.60;11.80;;;;;;;11.72;100.00;98934.45;107391;1261;22557;-84
2023/10/06 08:42:10;;;;;;;16.50;14.20;;;;;;;11.90;100.00;98933.81;107484;1275;25616;-84
2023/10/06 08:44:38;;;;;;;15.80;14.10;;;;;;;12.03;100.00;98937.34;107458;1275;25854;-84
2023/10/06 08:47:12;;;;;;;18.50;14.00;;;;;;;12.11;100.00;98937.11;107395;1275;24301;-83
2023/10/06 08:49:57;;;;;;;23.90;20.70;;;;;;;12.18;100.00;98937.66;107331;1275;22603;-82
2023/10/06 08:52:29;;;;;;;19.00;16.30;;;;;;;12.24;100.00;98946.19;107396;1275;22573;-82
2023/10/06 08:54:59;;;;;;;16.80;14.30;;;;;;;12.29;100.00;98949.23;107464;1260;22678;-83
2023/10/06 08:57:30;;;;;;;17.50;15.40;;;;;;;12.36;100.00;98947.23;107350;1275;23658;-83
2023/10/06 08:59:58;;;;;;;15.80;14.20;;;;;;;12.37;100.00;98950.66;107407;1260;22615;-83
2023/10/06 09:02:26;;;;;;;16.10;14.40;;;;;;;12.42;100.00;98950.84;107249;1275;22455;-82
2023/10/06 09:04:54;;;;;;;16.30;13.80;;;;;;;12.49;100.00;98953.09;107387;1254;24247;-84
2023/10/06 09:07:22;;;;;;;15.60;13.90;;;;;;;12.47;100.00;98954.90;107420;1275;22633;-81
2023/10/06 09:09:51;;;;;;;17.20;13.90;;;;;;;12.56;100.00;98951.52;107357;1270;22524;-82
2023/10/06 09:12:26;;;;;;;17.20;14.70;;;;;;;12.69;100.00;98948.95;107372;1275;23880;-80
2023/10/06 09:14:54;;;;;;;16.10;14.30;;;;;;;12.72;99.36;98951.40;107482;1275;22548;-82
2023/10/06 09:17:35;;;;;;;16.30;13.20;;;;;;;12.64;98.16;98943.69;107405;1275;24354;-81
2023/10/06 09:20:04;;;;;;;13.70;11.50;;;;;;;12.66;98.14;98948.77;107318;1270;22611;-82
2023/10/06 09:22:50;;;;;;;14.80;12.70;;;;;;;12.76;99.00;98944.70;107445;1275;22535;-81
2023/10/06 09:25:19;;;;;;;12.60;10.10;;;;;;;12.94;99.59;98943.59;107487;1260;22566;-80
2023/10/06 09:28:02;;;;;;;17.70;10.50;;;;;;;13.10;97.70;98944.65;107422;1275;23243;-80
2023/10/06 09:30:45;;;;;;;12.80;10.00;;;;;;;13.09;97.42;98951.42;107371;1275;23092;-80
2023/10/06 09:33:14;;;;;;;11.30;10.10;;;;;;;13.05;97.70;98946.92;107266;1275;22557;-82
2023/10/06 09:35:43;;;;;;;10.70;9.00;;;;;;;13.12;97.08;98947.33;107346;1275;24215;-81
2023/10/06 09:38:17;;;;;;;14.30;9.80;;;;;;;13.19;96.63;98941.77;107227;1275;22546;-82
2023/10/06 09:40:45;;;;;;;13.70;9.10;;;;;;;13.40;97.69;98935.56;107370;1273;25262;-80
2023/10/06 09:43:18;;;;;;;10.00;7.50;;;;;;;13.65;97.56;98935.34;107432;1273;24269;-80
2023/10/06 09:45:52;;;;;;;10.80;7.10;;;;;;;13.74;95.85;98935.52;107400;1275;22519;-81
2023/10/06 09:48:24;;;;;;;11.20;7.10;;;;;;;13.75;94.45;98936.58;107620;1275;25496;-79
2023/10/06 09:50:54;;;;;;;10.40;7.10;;;;;;;13.66;93.33;98938.13;107610;1260;22667;-81
2023/10/06 09:53:23;;;;;;;12.10;7.50;;;;;;;13.53;93.45;98938.10;107504;1260;25293;-81
2023/10/06 09:55:52;;;;;;;11.90;6.90;;;;;;;13.41;92.49;98934.37;107445;1275;25526;-81
2023/10/06 09:58:22;;;;;;;12.30;6.70;;;;;;;13.38;93.75;98924.70;107574;1275;23904;-82
2023/10/06 10:00:50;;;;;;;9.80;7.00;;;;;;;13.56;93.55;98917.25;107319;1273;22525;-81
2023/10/06 10:03:20;;;;;;;10.10;6.10;;;;;;;13.68;91.09;98919.70;107390;1263;22717;-81
2023/10/06 10:05:49;;;;;;;10.70;7.00;;;;;;;13.76;91.07;98918.65;107445;1270;22660;-83
2023/10/06 10:08:22;;;;;;;11.10;6.40;;;;;;;13.94;90.39;98918.70;107162;1275;23124;-80
2023/10/06 10:10:52;;;;;;;13.00;7.70;;;;;;;14.11;91.26;98916.13;107468;1260;22541;-80
2023/10/06 10:13:54;;;;;;;10.50;7.20;;;;;;;14.28;88.33;98912.32;107365;1276;22652;-81
2023/10/06 10:16:25;;;;;;;9.90;7.10;;;;;;;14.42;89.50;98903.82;107542;1254;22528;-81
2023/10/06 10:19:07;;;;;;;10.70;7.00;;;;;;;14.65;89.63;98895.30;107584;1276;22734;-82
2023/10/06 10:21:36;;;;;;;10.60;6.20;;;;;;;14.90;90.54;98885.69;110392;1275;23126;-81
2023/10/06 10:24:05;;;;;;;9.30;6.90;;;;;;;15.20;89.38;98883.36;108331;1270;25522;-81
2023/10/06 10:26:54;;;;;;;11.50;6.40;;;;;;;15.37;87.17;98889.45;107959;1275;22534;-81
2023/10/06 10:29:24;;;;;;;13.60;6.30;;;;;;;15.29;87.68;98882.95;107557;1260;22527;-82
2023/10/06 10:32:16;;;;;;;11.30;6.50;;;;;;;15.20;86.87;98878.46;107586;1267;24476;-82
2023/10/06 10:35:16;;;;;;;11.20;6.00;;;;;;;15.06;87.11;98869.45;107494;1275;24353;-81
2023/10/06 10:37:58;;;;;;;13.00;6.00;;;;;;;14.93;86.03;98862.16;107491;1275;22643;-82
2023/10/06 10:40:46;;;;;;;12.10;5.40;;;;;;;14.85;87.23;98853.91;107453;1273;25441;-82
2023/10/06 10:43:15;;;;;;;9.40;5.30;;;;;;;14.99;86.40;98853.67;107554;1275;25359;-82
2023/10/06 10:45:47;;;;;;;9.10;5.40;;;;;;;15.10;85.66;98845.25;107459;1267;25386;-81
2023/10/06 10:48:15;;;;;;;8.50;4.90;;;;;;;15.08;86.11;98832.80;107562;1275;22587;-83
2023/10/06 10:50:52;;;;;;;8.60;4.80;;;;;;;15.01;85.14;98827.77;107540;1275;22578;-82
2023/10/06 10:53:21;;;;;;;9.10;5.30;;;;;;;14.93;84.84;98824.45;107906;1260;22537;-81
2023/10/06 10:55:51;;;;;;;11.80;5.60;;;;;;;14.93;85.79;98821.56;107378;1269;22524;-81
2023/10/06 10:58:51;;;;;;;9.60;5.40;;;;;;;15.01;85.04;98822.36;107224;1259;22535;-82
2023/10/06 11:01:27;;;;;;;7.80;5.10;;;;;;;15.09;83.95;98812.38;107529;1275;25512;-81
2023/10/06 11:04:30;;;;;;;9.70;5.00;;;;;;;15.11;81.33;98809.95;107056;1275;22593;-81
2023/10/06 11:07:09;;;;;;;15.50;6.40;;;;;;;15.11;80.96;98805.69;107645;1275;22552;-82
2023/10/06 11:09:40;;;;;;;8.80;5.40;;;;;;;15.18;81.88;98797.55;107869;1273;22549;-82
2023/10/06 11:12:21;;;;;;;9.90;4.90;;;;;;;15.23;81.75;98796.15;107975;1268;22723;-81
2023/10/06 11:15:15;;;;;;;11.40;4.60;;;;;;;15.42;79.46;98798.02;107395;1275;25862;-81
2023/10/06 11:17:44;;;;;;;11.20;4.50;;;;;;;15.50;79.72;98795.23;107427;1261;22999;-81
2023/10/06 11:20:27;;;;;;;12.30;4.80;;;;;;;15.53;79.51;98793.98;107399;1275;25309;-82
2023/10/06 11:23:00;;;;;;;15.60;6.90;;;;;;;15.65;81.30;98793.63;107400;1275;22538;-82
2023/10/06 11:25:32;;;;;;;8.20;5.40;;;;;;;15.71;79.71;98794.54;107457;1272;22632;-82
2023/10/06 11:28:09;;;;;;;10.10;5.10;;;;;;;15.75;79.54;98785.19;107355;1276;22530;-82
2023/10/06 11:30:39;;;;;;;8.40;5.00;;;;;;;15.80;78.74;98784.30;107487;1275;24254;-82
2023/10/06 11:33:11;;;;;;;10.30;5.20;;;;;;;16.01;79.42;98782.06;107405;1267;22855;-81
2023/10/06 11:35:41;;;;;;;9.80;4.80;;;;;;;16.30;79.08;98781.94;107408;1275;26541;-81
2023/10/06 11:38:11;;;;;;;10.50;5.30;;;;;;;16.53;78.60;98776.27;107354;1275;24387;-82
2023/10/06 11:40:40;;;;;;;8.40;3.90;;;;;;;16.79;76.91;98771.06;107466;1275;24372;-81
2023/10/06 11:43:15;;;;;;;8.20;4.70;;;;;;;17.01;76.69;98765.72;107413;1275;24389;-81
2023/10/06 11:45:44;;;;;;;7.60;4.00;;;;;;;17.29;73.14;98769.11;107482;1272;23181;-81
2023/10/06 11:48:28;;;;;;;8.40;4.40;;;;;;;17.25;68.22;98772.55;107598;1267;23879;-81
2023/10/06 11:51:16;;;;;;;7.60;3.90;;;;;;;17.11;67.37;98771.22;107365;1275;22521;-80
2023/10/06 11:53:45;;;;;;;7.40;4.40;;;;;;;16.93;66.52;98775.99;107329;1273;23303;-80
2023/10/06 11:56:16;;;;;;;7.50;4.10;;;;;;;16.99;67.29;98786.09;107241;1275;22604;-80
2023/10/06 11:58:45;;;;;;;6.50;3.90;;;;;;;16.99;67.29;98786.70;107299;1270;25092;-80
2023/10/06 12:01:36;;;;;;;7.70;4.00;;;;;;;16.93;68.27;98782.69;107420;1272;22581;-81